createdAt,value
2019-04-30T00:00:38.971Z,6.90
2019-04-30T00:05:57.343Z,7.45
2019-04-30T00:08:25.785Z,6.90
2019-04-30T00:10:55.491Z,7.80
2019-04-30T00:13:25.765Z,7.33
2019-04-30T00:15:58.714Z,7.47
2019-04-30T00:18:25.487Z,8.38
2019-04-30T00:20:55.413Z,7.42
2019-04-30T00:23:27.114Z,7.28
2019-04-30T00:25:58.371Z,7.22
2019-04-30T00:28:25.415Z,8.08
2019-04-30T00:30:56.069Z,7.75
2019-04-30T00:33:27.491Z,7.17
2019-04-30T00:35:57.861Z,7.03
2019-04-30T00:38:25.353Z,7.50
2019-04-30T00:40:55.736Z,8.10
2019-04-30T00:43:25.222Z,7.62
2019-04-30T00:45:55.134Z,8.10
2019-04-30T00:48:27.985Z,7.22
2019-04-30T00:50:55.637Z,8.10
2019-04-30T00:53:23.662Z,7.40
2019-04-30T00:55:52.018Z,7.78
2019-04-30T00:58:25.864Z,7.70
2019-04-30T01:01:07.388Z,7.75
2019-04-30T01:03:39.464Z,7.12
2019-04-30T01:06:05.737Z,8.45
2019-04-30T01:08:35.808Z,7.70
2019-04-30T01:11:09.375Z,7.58
2019-04-30T01:13:34.903Z,8.00
2019-04-30T01:16:03.442Z,7.60
2019-04-30T01:18:32.145Z,7.28
2019-04-30T01:21:02.972Z,7.92
2019-04-30T01:23:30.490Z,7.72
2019-04-30T01:25:58.740Z,8.50
2019-04-30T01:28:28.399Z,7.78
2019-04-30T01:31:01.741Z,7.92
2019-04-30T01:33:34.663Z,8.45
2019-04-30T01:35:59.685Z,9.83
2019-04-30T01:38:28.663Z,7.70
2019-04-30T01:40:57.189Z,8.05
2019-04-30T01:43:31.717Z,7.85
2019-04-30T01:45:55.875Z,8.23
2019-04-30T01:48:25.125Z,8.70
2019-04-30T01:50:53.385Z,8.68
2019-04-30T01:53:21.677Z,8.00
2019-04-30T01:55:51.936Z,8.50
2019-04-30T01:58:37.146Z,8.40
2019-04-30T02:01:19.092Z,8.95
2019-04-30T02:03:48.699Z,8.53
2019-04-30T02:06:17.022Z,9.03
2019-04-30T02:08:45.320Z,9.25
2019-04-30T02:11:13.623Z,8.65
2019-04-30T02:13:41.895Z,8.48
2019-04-30T02:16:10.151Z,8.33
2019-04-30T02:18:39.409Z,9.30
2019-04-30T02:21:08.987Z,9.33
2019-04-30T02:23:39.230Z,8.30
2019-04-30T02:26:08.671Z,8.98
2019-04-30T02:28:36.994Z,8.80
2019-04-30T02:31:05.428Z,8.88
2019-04-30T02:33:35.510Z,9.35
2019-04-30T02:36:05.403Z,9.75
2019-04-30T02:38:39.635Z,8.93
2019-04-30T02:41:09.861Z,8.95
2019-04-30T02:43:39.830Z,9.53
2019-04-30T02:46:09.652Z,9.45
2019-04-30T02:48:39.634Z,9.45
2019-04-30T02:51:10.101Z,8.50
2019-04-30T02:54:00.576Z,9.15
2019-04-30T02:56:30.037Z,9.90
2019-04-30T02:59:00.481Z,9.65
2019-04-30T03:01:30.524Z,9.35
2019-04-30T03:03:59.844Z,9.90
2019-04-30T03:06:30.343Z,10.25
2019-04-30T03:09:01.073Z,10.10
2019-04-30T03:11:30.084Z,9.55
2019-04-30T03:13:59.308Z,9.70
2019-04-30T03:16:30.325Z,9.25
2019-04-30T03:19:06.378Z,9.70
2019-04-30T03:21:42.158Z,10.13
2019-04-30T03:24:11.143Z,9.50
2019-04-30T03:26:40.221Z,10.00
2019-04-30T03:29:11.350Z,9.10
2019-04-30T03:31:43.785Z,9.55
2019-04-30T03:34:16.748Z,9.80
2019-04-30T03:36:40.386Z,10.53
2019-04-30T03:39:10.931Z,11.60
2019-04-30T03:41:41.223Z,11.03
2019-04-30T03:44:20.843Z,11.15
2019-04-30T03:46:40.229Z,10.93
2019-04-30T03:49:12.453Z,13.08
2019-04-30T03:51:40.269Z,13.38
2019-04-30T03:54:09.982Z,12.70
2019-04-30T03:56:39.934Z,13.22
2019-04-30T03:59:10.667Z,13.85
2019-04-30T04:01:43.837Z,12.40
2019-04-30T04:04:30.911Z,13.58
2019-04-30T04:07:01.099Z,14.33
2019-04-30T04:09:31.380Z,15.13
2019-04-30T04:12:01.261Z,16.97
2019-04-30T04:14:29.750Z,17.52
2019-04-30T04:17:00.062Z,18.50
2019-04-30T04:19:29.229Z,18.62
2019-04-30T04:21:59.958Z,17.65
2019-04-30T04:24:30.090Z,18.80
2019-04-30T04:26:59.670Z,19.02
2019-04-30T04:29:29.811Z,20.27
2019-04-30T04:32:00.737Z,19.95
2019-04-30T04:34:30.312Z,21.40
2019-04-30T04:37:00.086Z,21.93
2019-04-30T04:39:29.761Z,21.73
2019-04-30T04:41:59.952Z,21.62
2019-04-30T04:44:29.494Z,22.37
2019-04-30T04:47:00.183Z,22.30
2019-04-30T04:49:30.599Z,24.18
2019-04-30T04:51:59.182Z,22.75
2019-04-30T04:54:29.810Z,21.80
2019-04-30T04:57:11.011Z,23.12
2019-04-30T04:59:29.580Z,23.67
2019-04-30T05:01:59.834Z,23.15
2019-04-30T05:04:29.828Z,23.47
2019-04-30T05:07:00.118Z,25.68
2019-04-30T05:09:28.605Z,24.45
2019-04-30T05:11:58.576Z,25.32
2019-04-30T05:14:28.756Z,22.82
2019-04-30T05:16:58.642Z,23.25
2019-04-30T05:19:28.567Z,24.10
2019-04-30T05:21:56.955Z,24.72
2019-04-30T05:24:25.192Z,25.15
2019-04-30T05:26:53.512Z,23.35
2019-04-30T05:29:21.737Z,23.73
2019-04-30T05:31:49.999Z,21.73
2019-04-30T05:34:18.815Z,23.85
2019-04-30T05:36:49.002Z,23.12
2019-04-30T05:39:18.840Z,24.80
2019-04-30T05:41:49.202Z,23.90
2019-04-30T05:44:18.531Z,25.00
2019-04-30T05:46:46.987Z,24.50
2019-04-30T05:49:15.258Z,25.12
2019-04-30T05:51:54.886Z,25.02
2019-04-30T05:54:13.439Z,25.75
2019-04-30T05:56:42.800Z,25.65
2019-04-30T05:59:12.061Z,24.30
2019-04-30T06:01:47.855Z,25.75
2019-04-30T06:04:10.316Z,28.25
2019-04-30T06:06:38.955Z,27.40
2019-04-30T06:09:14.894Z,30.85
2019-04-30T06:11:56.144Z,28.05
2019-04-30T06:14:26.027Z,30.92
2019-04-30T06:17:10.913Z,28.35
2019-04-30T06:19:40.230Z,28.40
2019-04-30T06:22:10.795Z,30.17
2019-04-30T06:24:39.561Z,29.63
2019-04-30T06:27:10.555Z,30.75
2019-04-30T06:29:58.513Z,31.82
2019-04-30T06:32:26.941Z,32.63
2019-04-30T06:34:56.190Z,29.70
2019-04-30T06:37:24.397Z,31.20
2019-04-30T06:39:53.509Z,28.65
2019-04-30T06:42:22.701Z,31.17
2019-04-30T06:44:50.955Z,31.30
2019-04-30T06:47:32.003Z,27.70
2019-04-30T06:49:49.135Z,30.45
2019-04-30T06:52:22.751Z,26.15
2019-04-30T06:54:47.310Z,26.10
2019-04-30T06:57:15.536Z,25.97
2019-04-30T06:59:43.971Z,27.10
2019-04-30T07:02:12.199Z,26.90
2019-04-30T07:04:40.429Z,29.02
2019-04-30T07:07:09.249Z,25.37
2019-04-30T07:09:51.287Z,28.90
2019-04-30T07:12:27.260Z,30.25
2019-04-30T07:14:49.456Z,25.50
2019-04-30T07:17:19.519Z,26.55
2019-04-30T07:19:55.729Z,27.67
2019-04-30T07:22:20.688Z,25.90
2019-04-30T07:24:49.452Z,28.17
2019-04-30T07:27:23.742Z,26.48
2019-04-30T07:29:49.526Z,27.10
2019-04-30T07:32:19.693Z,29.65
2019-04-30T07:34:49.495Z,29.00
2019-04-30T07:37:24.261Z,27.73
2019-04-30T07:39:49.318Z,28.50
2019-04-30T07:42:19.283Z,24.47
2019-04-30T07:44:50.019Z,26.37
2019-04-30T07:47:19.427Z,23.98
2019-04-30T07:49:54.313Z,24.60
2019-04-30T07:52:21.515Z,23.90
2019-04-30T07:54:51.564Z,22.07
2019-04-30T07:57:19.347Z,19.52
2019-04-30T07:59:49.675Z,21.45
2019-04-30T08:02:20.562Z,19.27
2019-04-30T08:05:04.355Z,19.77
2019-04-30T08:07:32.721Z,17.65
2019-04-30T08:10:01.131Z,17.48
2019-04-30T08:12:34.298Z,20.85
2019-04-30T08:15:00.205Z,20.55
2019-04-30T08:17:28.963Z,17.87
2019-04-30T08:19:58.785Z,17.30
2019-04-30T08:22:29.588Z,18.82
2019-04-30T08:24:58.708Z,19.57
2019-04-30T08:27:29.369Z,20.52
2019-04-30T08:29:59.086Z,18.57
2019-04-30T08:32:28.899Z,16.82
2019-04-30T08:35:00.985Z,20.50
2019-04-30T08:37:28.837Z,15.60
2019-04-30T08:40:00.225Z,18.50
2019-04-30T08:42:33.782Z,17.07
2019-04-30T08:44:58.617Z,15.50
2019-04-30T08:47:28.965Z,17.40
2019-04-30T08:49:56.989Z,16.87
2019-04-30T08:52:26.089Z,16.57
2019-04-30T08:54:54.454Z,16.55
2019-04-30T08:57:22.687Z,16.77
2019-04-30T08:59:51.275Z,17.20
2019-04-30T09:02:19.871Z,16.97
2019-04-30T09:04:50.723Z,16.82
2019-04-30T09:07:19.657Z,15.43
2019-04-30T09:09:48.836Z,15.95
2019-04-30T09:12:19.582Z,16.27
2019-04-30T09:14:49.038Z,14.70
2019-04-30T09:17:19.705Z,15.75
2019-04-30T09:19:48.979Z,14.87
2019-04-30T09:22:19.302Z,15.80
2019-04-30T09:24:49.538Z,15.23
2019-04-30T09:27:19.345Z,15.35
2019-04-30T09:29:49.192Z,14.28
2019-04-30T09:32:19.333Z,15.50
2019-04-30T09:34:48.824Z,16.95
2019-04-30T09:37:18.678Z,16.23
2019-04-30T09:39:49.407Z,15.80
2019-04-30T09:42:19.567Z,13.45
2019-04-30T09:44:49.279Z,14.38
2019-04-30T09:47:17.618Z,15.58
2019-04-30T09:49:49.194Z,14.85
2019-04-30T09:52:19.312Z,14.70
2019-04-30T09:54:49.595Z,15.75
2019-04-30T09:57:19.358Z,14.87
2019-04-30T09:59:48.747Z,16.57
2019-04-30T10:02:18.908Z,15.90
2019-04-30T10:04:47.444Z,17.15
2019-04-30T10:07:16.013Z,15.10
2019-04-30T10:09:44.253Z,14.50
2019-04-30T10:12:14.190Z,16.55
2019-04-30T10:14:42.711Z,14.55
2019-04-30T10:17:12.585Z,16.62
2019-04-30T10:19:40.824Z,15.20
2019-04-30T10:22:09.116Z,16.87
2019-04-30T10:24:39.224Z,16.40
2019-04-30T10:27:13.024Z,14.53
2019-04-30T10:29:39.505Z,17.27
2019-04-30T10:32:08.807Z,16.62
2019-04-30T10:34:37.460Z,18.45
2019-04-30T10:37:05.722Z,16.40
2019-04-30T10:39:33.975Z,16.27
2019-04-30T10:42:02.559Z,15.32
2019-04-30T10:44:30.881Z,15.95
2019-04-30T10:46:59.398Z,18.05
2019-04-30T10:49:29.211Z,17.30
2019-04-30T10:52:00.804Z,15.83
2019-04-30T10:54:28.938Z,18.80
2019-04-30T10:56:59.161Z,16.95
2019-04-30T10:59:27.585Z,17.80
2019-04-30T11:01:55.893Z,15.63
2019-04-30T11:04:24.119Z,17.45
2019-04-30T11:06:52.543Z,18.80
2019-04-30T11:09:20.799Z,18.45
2019-04-30T11:11:49.731Z,16.80
2019-04-30T11:14:18.641Z,19.50
2019-04-30T11:16:49.078Z,17.10
2019-04-30T11:19:18.959Z,16.35
2019-04-30T11:21:47.131Z,18.55
2019-04-30T11:24:15.701Z,17.85
2019-04-30T11:26:45.020Z,17.25
2019-04-30T11:29:14.293Z,17.82
2019-04-30T11:31:44.634Z,16.05
2019-04-30T11:34:13.158Z,14.70
2019-04-30T11:36:41.557Z,17.95
2019-04-30T11:39:11.508Z,14.80
2019-04-30T11:41:39.750Z,17.50
2019-04-30T11:44:09.264Z,15.53
2019-04-30T11:46:55.733Z,14.83
2019-04-30T11:49:24.080Z,16.95
2019-04-30T11:51:52.321Z,16.67
2019-04-30T11:54:20.696Z,16.50
2019-04-30T11:56:50.467Z,19.50
2019-04-30T11:59:19.595Z,16.05
2019-04-30T12:01:49.647Z,17.48
2019-04-30T12:04:19.454Z,15.35
2019-04-30T12:06:48.015Z,14.53
2019-04-30T12:09:32.819Z,18.77
2019-04-30T12:12:01.127Z,17.25
2019-04-30T12:14:29.774Z,16.15
2019-04-30T12:16:58.028Z,16.52
2019-04-30T12:19:26.277Z,17.50
2019-04-30T12:21:54.499Z,17.95
2019-04-30T12:24:22.812Z,18.48
2019-04-30T12:26:51.072Z,15.63
2019-04-30T12:29:19.464Z,20.30
2019-04-30T12:31:47.693Z,17.77
2019-04-30T12:34:16.857Z,21.95
2019-04-30T12:36:45.077Z,20.82
2019-04-30T12:39:14.455Z,19.75
2019-04-30T12:41:42.695Z,21.23
2019-04-30T12:44:10.954Z,19.87
2019-04-30T12:46:39.198Z,20.52
2019-04-30T12:49:10.184Z,20.72
2019-04-30T12:51:50.527Z,19.45
2019-04-30T12:54:29.927Z,20.25
2019-04-30T12:57:11.609Z,20.52
2019-04-30T12:59:39.877Z,21.75
2019-04-30T13:02:09.133Z,23.27
2019-04-30T13:04:39.386Z,23.65
2019-04-30T13:07:09.795Z,21.87
2019-04-30T13:09:39.811Z,22.00
2019-04-30T13:12:10.043Z,22.27
2019-04-30T13:14:51.139Z,23.20
2019-04-30T13:17:07.808Z,25.77
2019-04-30T13:19:36.186Z,24.18
2019-04-30T13:22:04.444Z,20.88
2019-04-30T13:24:32.755Z,22.87
2019-04-30T13:27:01.200Z,23.27
2019-04-30T13:29:31.080Z,27.87
2019-04-30T13:31:59.333Z,20.40
2019-04-30T13:34:44.169Z,24.77
2019-04-30T13:37:12.600Z,31.25
2019-04-30T13:39:50.679Z,26.30
2019-04-30T13:42:26.074Z,24.05
2019-04-30T13:44:54.374Z,26.68
2019-04-30T13:47:22.596Z,23.45
2019-04-30T13:49:50.850Z,22.62
2019-04-30T13:52:19.097Z,22.30
2019-04-30T13:54:47.335Z,23.10
2019-04-30T13:57:15.568Z,27.42
2019-04-30T13:59:44.610Z,26.35
2019-04-30T14:02:12.916Z,23.87
2019-04-30T14:04:58.156Z,26.40
2019-04-30T14:07:39.980Z,28.67
2019-04-30T14:10:08.500Z,26.37
2019-04-30T14:12:39.083Z,23.45
2019-04-30T14:15:09.224Z,32.30
2019-04-30T14:17:39.356Z,30.00
2019-04-30T14:20:07.571Z,26.37
2019-04-30T14:22:35.846Z,24.92
2019-04-30T14:25:07.997Z,27.07
2019-04-30T14:27:48.795Z,32.20
2019-04-30T14:30:06.583Z,27.73
2019-04-30T14:32:34.815Z,34.43
2019-04-30T14:35:03.600Z,31.82
2019-04-30T14:37:31.968Z,29.30
2019-04-30T14:40:00.866Z,29.60
2019-04-30T14:42:32.049Z,27.42
2019-04-30T14:45:08.769Z,27.70
2019-04-30T14:47:40.945Z,31.68
2019-04-30T14:50:10.965Z,33.45
2019-04-30T14:52:40.967Z,25.77
2019-04-30T14:55:26.791Z,25.15
2019-04-30T14:58:02.865Z,34.80
2019-04-30T15:00:33.824Z,29.12
2019-04-30T15:03:03.753Z,31.02
2019-04-30T15:05:38.940Z,27.85
2019-04-30T15:08:02.426Z,26.00
2019-04-30T15:10:30.676Z,28.45
2019-04-30T15:13:00.225Z,26.85
2019-04-30T15:15:29.279Z,25.82
2019-04-30T15:17:59.208Z,27.00
2019-04-30T15:20:29.527Z,32.05
2019-04-30T15:23:18.969Z,33.30
2019-04-30T15:25:46.144Z,30.12
2019-04-30T15:28:14.367Z,28.90
2019-04-30T15:30:42.608Z,31.45
2019-04-30T15:33:14.946Z,30.30
2019-04-30T15:35:43.223Z,31.80
2019-04-30T15:38:12.455Z,27.10
2019-04-30T15:40:40.686Z,34.53
2019-04-30T15:43:08.975Z,31.02
2019-04-30T15:45:39.083Z,34.92
2019-04-30T15:48:08.607Z,34.98
2019-04-30T15:50:37.047Z,29.60
2019-04-30T15:53:05.939Z,36.90
2019-04-30T15:55:34.189Z,31.80
2019-04-30T15:58:06.811Z,34.33
2019-04-30T16:00:35.191Z,31.75
2019-04-30T16:03:10.996Z,30.60
2019-04-30T16:05:43.819Z,32.75
2019-04-30T16:11:00.174Z,33.88
2019-04-30T16:13:30.544Z,31.50
2019-04-30T16:15:59.146Z,33.28
2019-04-30T16:18:30.382Z,33.58
2019-04-30T16:20:59.412Z,33.92
2019-04-30T16:23:27.970Z,35.63
2019-04-30T16:25:56.217Z,32.48
2019-04-30T16:28:24.511Z,36.05
2019-04-30T16:30:52.967Z,32.30
2019-04-30T16:33:21.283Z,33.90
2019-04-30T16:35:51.135Z,36.90
2019-04-30T16:38:20.956Z,35.25
2019-04-30T16:40:49.283Z,33.70
2019-04-30T16:43:18.623Z,36.88
2019-04-30T16:45:49.392Z,35.70
2019-04-30T16:48:19.336Z,34.60
2019-04-30T16:50:48.928Z,33.88
2019-04-30T16:53:17.648Z,32.75
2019-04-30T16:55:45.985Z,35.65
2019-04-30T16:58:14.227Z,32.63
2019-04-30T17:00:42.520Z,32.63
2019-04-30T17:03:24.789Z,35.10
2019-04-30T17:06:00.528Z,37.05
2019-04-30T17:08:39.320Z,33.67
2019-04-30T17:11:18.269Z,37.20
2019-04-30T17:13:52.797Z,37.48
2019-04-30T17:16:23.518Z,37.93
2019-04-30T17:18:51.846Z,33.00
2019-04-30T17:21:20.167Z,38.88
2019-04-30T17:23:50.591Z,39.25
2019-04-30T17:26:19.006Z,39.48
2019-04-30T17:28:47.963Z,39.92
2019-04-30T17:31:17.283Z,38.90
2019-04-30T17:33:45.623Z,40.63
2019-04-30T17:36:14.019Z,42.95
2019-04-30T17:38:42.245Z,40.30
2019-04-30T17:41:10.528Z,42.27
2019-04-30T17:43:39.424Z,42.48
2019-04-30T17:46:08.830Z,37.58
2019-04-30T17:48:37.057Z,39.88
2019-04-30T17:51:05.291Z,38.85
2019-04-30T17:53:34.703Z,43.23
2019-04-30T17:56:02.973Z,38.05
2019-04-30T17:58:31.210Z,40.05
2019-04-30T18:01:01.089Z,43.40
2019-04-30T18:03:29.323Z,45.60
2019-04-30T18:05:59.218Z,45.73
2019-04-30T18:08:28.392Z,44.65
2019-04-30T18:10:56.711Z,44.80
2019-04-30T18:13:24.928Z,40.92
2019-04-30T18:15:53.199Z,43.60
2019-04-30T18:18:30.864Z,44.88
2019-04-30T18:21:03.482Z,43.95
2019-04-30T18:23:39.361Z,44.05
2019-04-30T18:26:11.913Z,44.33
2019-04-30T18:28:40.250Z,42.45
2019-04-30T18:31:08.913Z,41.02
2019-04-30T18:33:37.309Z,40.80
2019-04-30T18:36:05.533Z,32.93
2019-04-30T18:38:33.847Z,37.30
2019-04-30T18:41:02.072Z,40.38
2019-04-30T18:43:31.323Z,40.45
2019-04-30T18:46:00.754Z,40.15
2019-04-30T18:48:29.500Z,42.20
2019-04-30T18:50:57.904Z,42.40
2019-04-30T18:53:28.579Z,40.75
2019-04-30T18:55:59.056Z,43.08
2019-04-30T18:58:37.492Z,40.00
2019-04-30T19:00:59.174Z,41.08
2019-04-30T19:03:29.179Z,41.60
2019-04-30T19:06:01.432Z,38.00
2019-04-30T19:08:34.244Z,40.38
2019-04-30T19:11:22.377Z,40.10
2019-04-30T19:14:04.351Z,44.95
2019-04-30T19:16:53.556Z,42.53
2019-04-30T19:19:29.625Z,42.62
2019-04-30T19:21:58.674Z,42.25
2019-04-30T19:24:27.072Z,44.73
2019-04-30T19:26:55.362Z,42.50
2019-04-30T19:29:23.591Z,41.40
2019-04-30T19:31:52.005Z,42.40
2019-04-30T19:34:20.219Z,44.63
2019-04-30T19:36:49.223Z,43.92
2019-04-30T19:39:19.518Z,45.55
2019-04-30T19:41:49.007Z,47.25
2019-04-30T19:44:20.644Z,49.18
2019-04-30T19:46:48.793Z,44.08
2019-04-30T19:49:19.111Z,44.98
2019-04-30T19:51:47.185Z,47.27
2019-04-30T19:54:18.930Z,46.13
2019-04-30T19:59:21.530Z,44.00
2019-04-30T20:01:49.768Z,42.53
2019-04-30T20:04:18.579Z,43.35
2019-04-30T20:06:48.760Z,42.90
2019-04-30T20:09:19.282Z,42.75
2019-04-30T20:11:49.262Z,40.20
2019-04-30T20:14:18.648Z,40.95
2019-04-30T20:16:48.633Z,41.53
2019-04-30T20:19:17.111Z,39.80
2019-04-30T20:21:50.812Z,45.30
2019-04-30T20:24:15.318Z,46.28
2019-04-30T20:26:43.548Z,45.20
2019-04-30T20:29:11.846Z,44.53
2019-04-30T20:31:40.058Z,44.83
2019-04-30T20:34:09.154Z,45.80
2019-04-30T20:36:38.880Z,47.33
2019-04-30T20:39:09.279Z,46.58
2019-04-30T20:41:39.523Z,47.58
2019-04-30T20:44:08.710Z,46.98
2019-04-30T20:46:39.338Z,45.60
2019-04-30T20:49:09.071Z,46.98
2019-04-30T20:51:40.146Z,47.00
2019-04-30T20:54:09.119Z,51.95
2019-04-30T20:56:38.980Z,50.28
2019-04-30T20:59:10.229Z,44.48
2019-04-30T21:01:39.213Z,49.77
2019-04-30T21:04:07.527Z,53.15
2019-04-30T21:06:36.751Z,52.88
2019-04-30T21:09:06.132Z,55.38
2019-04-30T21:11:34.438Z,57.80
2019-04-30T21:14:02.653Z,56.65
2019-04-30T21:16:30.901Z,52.67
2019-04-30T21:18:59.156Z,53.45
2019-04-30T21:21:28.739Z,58.98
2019-04-30T21:23:57.236Z,54.85
2019-04-30T21:26:25.485Z,57.03
2019-04-30T21:28:53.724Z,57.23
2019-04-30T21:31:35.939Z,56.13
2019-04-30T21:34:12.303Z,53.93
2019-04-30T21:36:40.626Z,52.08
2019-04-30T21:39:09.084Z,57.58
2019-04-30T21:41:39.541Z,56.08
2019-04-30T21:44:08.047Z,61.98
2019-04-30T21:46:37.589Z,63.63
2019-04-30T21:49:06.240Z,65.35
2019-04-30T21:51:34.487Z,67.32
2019-04-30T21:54:02.707Z,68.92
2019-04-30T21:56:30.954Z,69.82
2019-04-30T21:58:59.176Z,61.35
2019-04-30T22:01:27.800Z,69.53
2019-04-30T22:03:56.019Z,67.37
2019-04-30T22:06:24.418Z,60.75
2019-04-30T22:08:52.645Z,64.07
2019-04-30T22:11:20.906Z,52.48
2019-04-30T22:13:49.453Z,58.33
2019-04-30T22:16:20.054Z,56.65
2019-04-30T22:18:47.695Z,61.58
2019-04-30T22:21:15.937Z,58.23
2019-04-30T22:23:44.161Z,60.15
2019-04-30T22:26:12.416Z,59.88
2019-04-30T22:28:41.292Z,58.95
2019-04-30T22:31:09.728Z,56.37
2019-04-30T22:33:39.178Z,58.33
2019-04-30T22:36:10.887Z,57.85
2019-04-30T22:38:40.996Z,51.48
2019-04-30T22:41:09.238Z,53.02
2019-04-30T22:43:37.481Z,49.35
2019-04-30T22:46:16.340Z,51.35
2019-04-30T22:48:44.551Z,52.15
2019-04-30T22:51:13.062Z,47.90
2019-04-30T22:53:41.297Z,53.33
2019-04-30T22:56:09.617Z,51.95
2019-04-30T22:58:38.216Z,48.75
2019-04-30T23:01:23.080Z,51.55
2019-04-30T23:03:52.950Z,51.23
2019-04-30T23:06:21.184Z,50.35
2019-04-30T23:08:49.424Z,48.23
2019-04-30T23:11:17.793Z,44.50
2019-04-30T23:13:46.011Z,47.78
2019-04-30T23:16:14.264Z,42.55
2019-04-30T23:18:42.578Z,44.03
2019-04-30T23:21:10.835Z,42.85
2019-04-30T23:23:39.097Z,42.33
2019-04-30T23:26:07.403Z,44.25
2019-04-30T23:28:35.635Z,43.68
2019-04-30T23:31:03.895Z,41.40
2019-04-30T23:33:32.131Z,43.58
2019-04-30T23:36:00.365Z,40.65
2019-04-30T23:38:28.721Z,40.45
2019-04-30T23:40:56.961Z,41.42
2019-04-30T23:43:25.188Z,42.95
2019-04-30T23:45:53.430Z,45.20
2019-04-30T23:48:21.656Z,44.50
2019-04-30T23:50:50.982Z,43.30
2019-04-30T23:53:19.231Z,43.10
2019-04-30T23:55:47.553Z,45.08
2019-04-30T23:58:16.237Z,39.92
